createdAt,value
2018-11-27T00:00:39.231Z,5.80
2018-11-27T00:03:09.278Z,5.70
2018-11-27T00:05:38.302Z,5.70
2018-11-27T00:08:07.302Z,5.70
2018-11-27T00:10:37.619Z,5.70
2018-11-27T00:13:06.108Z,5.80
2018-11-27T00:15:34.459Z,5.80
2018-11-27T00:18:02.831Z,5.80
2018-11-27T00:20:31.191Z,5.80
2018-11-27T00:22:59.539Z,5.70
2018-11-27T00:25:27.857Z,5.70
2018-11-27T00:27:56.211Z,5.80
2018-11-27T00:30:24.514Z,5.80
2018-11-27T00:32:52.887Z,5.70
2018-11-27T00:35:21.223Z,5.70
2018-11-27T00:37:49.556Z,5.80
2018-11-27T00:40:20.681Z,5.70
2018-11-27T00:42:49.102Z,5.70
2018-11-27T00:45:18.367Z,5.70
2018-11-27T00:47:48.706Z,5.70
2018-11-27T00:50:19.446Z,5.80
2018-11-27T00:52:47.803Z,5.80
2018-11-27T00:55:17.648Z,5.80
2018-11-27T00:57:47.256Z,5.80
2018-11-27T01:00:17.811Z,5.80
2018-11-27T01:02:46.186Z,5.90
2018-11-27T01:05:15.694Z,5.90
2018-11-27T01:07:44.080Z,5.90
2018-11-27T01:10:14.605Z,5.80
2018-11-27T01:12:42.971Z,5.70
2018-11-27T01:15:12.432Z,5.70
2018-11-27T01:17:43.401Z,5.70
2018-11-27T01:20:14.277Z,5.70
2018-11-27T01:22:42.631Z,5.60
2018-11-27T01:25:11.276Z,5.70
2018-11-27T01:27:39.715Z,5.70
2018-11-27T01:30:10.787Z,5.60
2018-11-27T01:32:39.194Z,5.70
2018-11-27T01:35:09.914Z,5.60
2018-11-27T01:37:38.304Z,5.60
2018-11-27T01:40:17.443Z,5.60
2018-11-27T01:42:47.778Z,5.60
2018-11-27T01:45:17.445Z,5.60
2018-11-27T01:47:45.943Z,5.50
2018-11-27T01:50:15.127Z,5.50
2018-11-27T01:52:43.531Z,5.50
2018-11-27T01:55:14.067Z,5.60
2018-11-27T01:57:42.442Z,5.60
2018-11-27T02:00:20.708Z,5.60
2018-11-27T02:02:49.083Z,5.50
2018-11-27T02:05:17.463Z,5.50
2018-11-27T02:07:45.830Z,5.50
2018-11-27T02:10:14.138Z,5.50
2018-11-27T02:12:45.270Z,5.60
2018-11-27T02:15:17.204Z,5.50
2018-11-27T02:17:45.498Z,5.50
2018-11-27T02:20:13.914Z,5.50
2018-11-27T02:22:42.307Z,5.60
2018-11-27T02:25:19.714Z,5.60
2018-11-27T02:27:48.040Z,5.60
2018-11-27T02:30:17.549Z,5.60
2018-11-27T02:32:45.921Z,5.60
2018-11-27T02:35:24.006Z,5.60
2018-11-27T02:37:54.980Z,5.60
2018-11-27T02:40:23.341Z,5.60
2018-11-27T02:42:51.735Z,5.60
2018-11-27T02:45:21.126Z,5.60
2018-11-27T02:47:50.340Z,5.60
2018-11-27T02:50:19.744Z,5.60
2018-11-27T02:52:48.073Z,5.60
2018-11-27T02:55:18.484Z,5.60
2018-11-27T02:57:46.779Z,5.60
2018-11-27T03:00:17.668Z,5.60
2018-11-27T03:02:45.967Z,5.50
2018-11-27T03:05:18.289Z,5.50
2018-11-27T03:07:53.160Z,5.50
2018-11-27T03:10:21.525Z,5.50
2018-11-27T03:12:49.823Z,5.60
2018-11-27T03:15:18.492Z,5.60
2018-11-27T03:17:46.825Z,5.60
2018-11-27T03:20:16.146Z,5.60
2018-11-27T03:22:44.560Z,5.60
2018-11-27T03:25:13.845Z,5.60
2018-11-27T03:27:42.347Z,5.60
2018-11-27T03:30:13.862Z,5.70
2018-11-27T03:32:42.373Z,5.60
2018-11-27T03:35:20.366Z,5.60
2018-11-27T03:37:48.966Z,5.60
2018-11-27T03:40:23.246Z,5.60
2018-11-27T03:42:51.650Z,5.70
2018-11-27T03:45:20.520Z,5.70
2018-11-27T03:47:48.931Z,5.60
2018-11-27T03:50:22.201Z,5.60
2018-11-27T03:52:50.569Z,5.60
2018-11-27T03:55:18.967Z,5.60
2018-11-27T03:57:47.327Z,5.60
2018-11-27T04:00:19.614Z,5.50
2018-11-27T04:02:50.386Z,5.60
2018-11-27T04:05:18.716Z,5.60
2018-11-27T04:07:47.114Z,5.50
2018-11-27T04:10:17.751Z,5.60
2018-11-27T04:12:46.106Z,5.50
2018-11-27T04:15:14.479Z,5.50
2018-11-27T04:17:42.841Z,5.50
2018-11-27T04:20:12.590Z,5.40
2018-11-27T04:22:41.564Z,5.50
2018-11-27T04:25:12.327Z,5.50
2018-11-27T04:27:40.792Z,5.50
2018-11-27T04:30:15.154Z,5.60
2018-11-27T04:32:43.518Z,5.50
2018-11-27T04:35:19.937Z,5.60
2018-11-27T04:37:48.418Z,5.70
2018-11-27T04:40:18.259Z,5.70
2018-11-27T04:42:46.612Z,5.70
2018-11-27T04:45:26.145Z,5.60
2018-11-27T04:47:54.513Z,5.60
2018-11-27T04:50:22.957Z,5.60
2018-11-27T04:52:51.258Z,5.60
2018-11-27T04:55:20.339Z,5.60
2018-11-27T04:57:50.279Z,5.60
2018-11-27T05:00:19.804Z,5.60
2018-11-27T05:02:48.126Z,5.50
2018-11-27T05:05:16.520Z,5.60
2018-11-27T05:07:44.850Z,5.60
2018-11-27T05:10:17.514Z,5.50
2018-11-27T05:12:45.842Z,5.50
2018-11-27T05:15:19.085Z,5.50
2018-11-27T05:17:50.014Z,5.50
2018-11-27T05:20:18.355Z,5.50
2018-11-27T05:22:46.670Z,5.60
2018-11-27T05:25:16.872Z,5.50
2018-11-27T05:27:46.237Z,5.50
2018-11-27T05:30:17.542Z,5.50
2018-11-27T05:32:45.950Z,5.50
2018-11-27T05:35:15.727Z,5.60
2018-11-27T05:37:45.081Z,5.50
2018-11-27T05:40:22.140Z,5.50
2018-11-27T05:42:53.870Z,5.50
2018-11-27T05:45:23.061Z,5.50
2018-11-27T05:47:51.369Z,5.50
2018-11-27T05:50:19.828Z,5.50
2018-11-27T05:52:48.145Z,5.40
2018-11-27T05:55:16.979Z,5.40
2018-11-27T05:57:46.590Z,5.40
2018-11-27T06:00:20.748Z,5.30
2018-11-27T06:02:50.733Z,5.30
2018-11-27T06:05:20.526Z,5.30
2018-11-27T06:07:48.835Z,5.30
2018-11-27T06:10:18.213Z,5.30
2018-11-27T06:12:46.585Z,5.30
2018-11-27T06:15:16.662Z,5.30
2018-11-27T06:17:45.506Z,5.30
2018-11-27T06:20:19.941Z,5.30
2018-11-27T06:22:48.316Z,5.30
2018-11-27T06:25:20.731Z,5.30
2018-11-27T06:27:51.373Z,5.30
2018-11-27T06:30:21.761Z,5.30
2018-11-27T06:32:50.164Z,5.30
2018-11-27T06:35:23.734Z,5.40
2018-11-27T06:37:52.075Z,5.40
2018-11-27T06:40:21.809Z,5.50
2018-11-27T06:42:50.245Z,5.40
2018-11-27T06:45:19.266Z,5.30
2018-11-27T06:47:48.585Z,5.40
2018-11-27T06:50:18.077Z,5.40
2018-11-27T06:52:46.540Z,5.50
2018-11-27T06:55:16.053Z,5.50
2018-11-27T06:57:44.448Z,5.50
2018-11-27T07:00:28.572Z,5.50
2018-11-27T07:02:57.707Z,5.50
2018-11-27T07:05:26.029Z,5.50
2018-11-27T07:07:54.341Z,5.50
2018-11-27T07:10:23.994Z,5.50
2018-11-27T07:12:54.518Z,5.50
2018-11-27T07:15:23.656Z,5.40
2018-11-27T07:17:51.957Z,5.40
2018-11-27T07:20:20.262Z,5.40
2018-11-27T07:22:48.570Z,5.40
2018-11-27T07:25:17.041Z,5.50
2018-11-27T07:27:46.609Z,5.40
2018-11-27T07:30:16.173Z,5.50
2018-11-27T07:32:44.480Z,5.40
2018-11-27T07:35:13.671Z,5.50
2018-11-27T07:37:42.025Z,5.50
2018-11-27T07:40:16.475Z,5.60
2018-11-27T07:42:45.039Z,5.50
2018-11-27T07:45:14.557Z,5.50
2018-11-27T07:47:42.881Z,5.40
2018-11-27T07:50:11.820Z,5.50
2018-11-27T07:52:40.251Z,5.40
2018-11-27T07:55:10.134Z,5.40
2018-11-27T07:57:38.546Z,5.40
2018-11-27T08:00:23.059Z,5.40
2018-11-27T08:02:52.465Z,5.40
2018-11-27T08:05:23.906Z,5.40
2018-11-27T08:07:53.312Z,5.40
2018-11-27T08:10:22.795Z,5.40
2018-11-27T08:12:51.108Z,5.50
2018-11-27T08:15:21.465Z,5.50
2018-11-27T08:17:49.772Z,5.50
2018-11-27T08:20:23.174Z,5.60
2018-11-27T08:22:51.562Z,5.50
2018-11-27T08:25:19.890Z,5.50
2018-11-27T08:27:48.197Z,5.50
2018-11-27T08:30:17.588Z,5.50
2018-11-27T08:32:45.948Z,5.50
2018-11-27T08:35:16.349Z,5.50
2018-11-27T08:37:45.675Z,5.40
2018-11-27T08:40:15.407Z,5.50
2018-11-27T08:42:43.691Z,5.40
2018-11-27T08:45:13.980Z,5.50
2018-11-27T08:47:42.383Z,5.50
2018-11-27T08:50:13.972Z,5.50
2018-11-27T08:52:46.717Z,5.50
2018-11-27T08:55:14.140Z,5.50
2018-11-27T08:57:43.768Z,5.50
2018-11-27T09:00:14.189Z,5.40
2018-11-27T09:02:42.515Z,5.40
2018-11-27T09:05:11.554Z,5.40
2018-11-27T09:07:39.837Z,5.30
2018-11-27T09:10:12.821Z,5.20
2018-11-27T09:12:41.092Z,5.20
2018-11-27T09:15:10.995Z,5.30
2018-11-27T09:17:39.306Z,5.40
2018-11-27T09:20:09.714Z,5.40
2018-11-27T09:22:38.260Z,5.30
2018-11-27T09:25:10.268Z,5.30
2018-11-27T09:27:38.697Z,5.30
2018-11-27T09:30:12.123Z,5.30
2018-11-27T09:32:40.517Z,5.40
2018-11-27T09:35:09.157Z,5.30
2018-11-27T09:37:37.532Z,5.30
2018-11-27T09:40:10.250Z,5.30
2018-11-27T09:42:38.572Z,5.20
2018-11-27T09:45:09.013Z,5.20
2018-11-27T09:47:37.310Z,5.20
2018-11-27T09:50:07.873Z,5.20
2018-11-27T09:52:36.176Z,5.20
2018-11-27T09:55:06.345Z,5.20
2018-11-27T09:57:34.637Z,5.20
2018-11-27T10:00:02.929Z,5.30
2018-11-27T10:02:31.224Z,5.20
2018-11-27T10:04:59.505Z,5.20
2018-11-27T10:07:27.922Z,5.20
2018-11-27T10:09:56.089Z,5.20
2018-11-27T10:12:24.394Z,5.30
2018-11-27T10:14:52.669Z,5.30
2018-11-27T10:17:21.008Z,5.30
2018-11-27T10:19:49.300Z,5.20
2018-11-27T10:22:17.700Z,5.30
2018-11-27T10:24:45.994Z,5.30
2018-11-27T10:27:14.306Z,5.30
2018-11-27T10:29:42.601Z,5.30
2018-11-27T10:32:10.949Z,5.30
2018-11-27T10:34:43.433Z,5.30
2018-11-27T10:37:12.473Z,5.30
2018-11-27T10:39:40.771Z,5.40
2018-11-27T10:42:09.097Z,5.40
2018-11-27T10:44:37.398Z,5.40
2018-11-27T10:47:05.744Z,5.40
2018-11-27T10:49:34.029Z,5.40
2018-11-27T10:52:02.780Z,5.30
2018-11-27T10:54:31.093Z,5.30
2018-11-27T10:56:59.413Z,5.30
2018-11-27T10:59:27.710Z,5.40
2018-11-27T11:02:00.261Z,5.30
2018-11-27T11:04:28.565Z,5.30
2018-11-27T11:06:56.881Z,5.20
2018-11-27T11:09:25.182Z,5.10
2018-11-27T11:11:53.524Z,5.10
2018-11-27T11:14:21.828Z,5.10
2018-11-27T11:16:50.153Z,5.20
2018-11-27T11:19:18.556Z,5.10
2018-11-27T11:21:46.805Z,5.10
2018-11-27T11:24:15.381Z,5.10
2018-11-27T11:26:43.753Z,5.10
2018-11-27T11:29:12.064Z,5.10
2018-11-27T11:31:40.374Z,5.20
2018-11-27T11:34:08.689Z,5.10
2018-11-27T11:36:37.009Z,5.10
2018-11-27T11:39:09.018Z,5.10
2018-11-27T11:41:37.421Z,5.10
2018-11-27T11:44:05.856Z,5.10
2018-11-27T11:46:34.177Z,5.10
2018-11-27T11:49:02.491Z,5.00
2018-11-27T11:51:30.822Z,5.00
2018-11-27T11:53:59.513Z,5.10
2018-11-27T11:56:27.836Z,5.10
2018-11-27T11:58:56.185Z,5.00
2018-11-27T12:01:24.500Z,5.00
2018-11-27T12:03:52.805Z,5.10
2018-11-27T12:06:21.122Z,5.00
2018-11-27T12:08:49.396Z,4.90
2018-11-27T12:11:17.704Z,4.90
2018-11-27T12:13:45.981Z,4.90
2018-11-27T12:16:14.265Z,4.90
2018-11-27T12:18:42.561Z,4.90
2018-11-27T12:21:10.838Z,4.90
2018-11-27T12:23:39.157Z,4.90
2018-11-27T12:26:07.437Z,4.90
2018-11-27T12:28:35.754Z,4.90
2018-11-27T12:31:04.046Z,4.90
2018-11-27T12:33:32.334Z,4.90
2018-11-27T12:36:00.613Z,4.90
2018-11-27T12:38:28.937Z,5.00
2018-11-27T12:40:57.235Z,4.90
2018-11-27T12:43:25.565Z,4.90
2018-11-27T12:45:53.837Z,5.00
2018-11-27T12:48:22.222Z,5.00
2018-11-27T12:50:50.529Z,4.90
2018-11-27T12:53:19.022Z,4.90
2018-11-27T12:55:48.609Z,5.00
2018-11-27T12:58:16.910Z,5.00
2018-11-27T13:00:45.204Z,5.00
2018-11-27T13:03:13.494Z,4.90
2018-11-27T13:05:43.438Z,4.80
2018-11-27T13:08:15.340Z,4.80
2018-11-27T13:10:43.652Z,4.70
2018-11-27T13:13:11.945Z,4.80
2018-11-27T13:15:40.972Z,4.70
2018-11-27T13:18:09.932Z,4.70
2018-11-27T13:20:38.829Z,4.70
2018-11-27T13:23:07.683Z,4.70
2018-11-27T13:25:36.568Z,4.60
2018-11-27T13:28:05.369Z,4.70
2018-11-27T13:30:42.041Z,4.70
2018-11-27T13:33:12.836Z,4.80
2018-11-27T13:35:41.140Z,4.90
2018-11-27T13:38:09.464Z,5.00
2018-11-27T13:40:37.785Z,5.10
2018-11-27T13:43:07.505Z,5.10
2018-11-27T13:45:36.669Z,5.00
2018-11-27T13:48:06.208Z,5.10
2018-11-27T13:50:34.557Z,5.00
2018-11-27T13:53:02.936Z,5.00
2018-11-27T13:55:31.258Z,5.00
2018-11-27T13:57:59.976Z,5.00
2018-11-27T14:00:28.288Z,5.00
2018-11-27T14:02:56.738Z,5.10
2018-11-27T14:05:25.601Z,5.10
2018-11-27T14:07:53.912Z,5.00
2018-11-27T14:10:22.214Z,5.00
2018-11-27T14:12:50.518Z,5.00
2018-11-27T14:15:24.289Z,5.00
2018-11-27T14:17:52.378Z,5.10
2018-11-27T14:20:20.709Z,5.10
2018-11-27T14:22:49.806Z,5.10
2018-11-27T14:25:18.135Z,5.10
2018-11-27T14:27:47.200Z,5.10
2018-11-27T14:30:16.665Z,4.90
2018-11-27T14:32:45.093Z,4.90
2018-11-27T14:35:14.287Z,4.80
2018-11-27T14:37:42.944Z,4.90
2018-11-27T14:40:14.345Z,5.00
2018-11-27T14:42:42.681Z,5.10
2018-11-27T14:45:20.002Z,5.00
2018-11-27T14:47:49.473Z,4.90
2018-11-27T14:50:17.812Z,5.00
2018-11-27T14:52:46.112Z,5.00
2018-11-27T14:55:15.545Z,5.00
2018-11-27T14:57:43.902Z,5.00
2018-11-27T15:00:15.286Z,5.10
2018-11-27T15:02:43.670Z,5.00
2018-11-27T15:05:15.534Z,5.00
2018-11-27T15:07:43.817Z,4.90
2018-11-27T15:10:12.740Z,4.90
2018-11-27T15:12:41.094Z,5.00
2018-11-27T15:15:12.664Z,4.90
2018-11-27T15:17:40.993Z,4.90
2018-11-27T15:20:13.164Z,4.90
2018-11-27T15:22:41.452Z,4.90
2018-11-27T15:25:09.898Z,4.80
2018-11-27T15:27:38.290Z,4.80
2018-11-27T15:30:23.470Z,4.80
2018-11-27T15:32:52.997Z,5.00
2018-11-27T15:35:21.359Z,5.00
2018-11-27T15:37:49.644Z,5.00
2018-11-27T15:40:19.420Z,5.00
2018-11-27T15:42:47.738Z,5.00
2018-11-27T15:45:21.762Z,4.90
2018-11-27T15:47:50.135Z,4.90
2018-11-27T15:50:18.458Z,5.00
2018-11-27T15:52:46.788Z,5.00
2018-11-27T15:55:20.348Z,4.90
2018-11-27T15:57:50.140Z,4.90
2018-11-27T16:00:19.249Z,4.90
2018-11-27T16:02:47.581Z,4.80
2018-11-27T16:05:16.230Z,4.80
2018-11-27T16:07:44.658Z,4.80
2018-11-27T16:10:14.093Z,4.70
2018-11-27T16:12:42.384Z,4.70
2018-11-27T16:15:13.649Z,4.70
2018-11-27T16:17:42.276Z,4.60
2018-11-27T16:20:15.022Z,4.70
2018-11-27T16:22:43.629Z,4.80
2018-11-27T16:25:13.134Z,4.70
2018-11-27T16:27:41.461Z,4.80
2018-11-27T16:30:14.032Z,4.80
2018-11-27T16:32:42.349Z,4.80
2018-11-27T16:35:11.671Z,4.70
2018-11-27T16:37:40.316Z,4.70
2018-11-27T16:40:11.780Z,4.70
2018-11-27T16:42:40.205Z,4.80
2018-11-27T16:45:20.155Z,4.80
2018-11-27T16:47:48.740Z,4.90
2018-11-27T16:50:17.600Z,4.90
2018-11-27T16:52:46.209Z,4.90
2018-11-27T16:55:15.881Z,4.80
2018-11-27T16:57:44.214Z,4.80
2018-11-27T17:00:20.966Z,4.90
2018-11-27T17:02:50.498Z,4.90
2018-11-27T17:05:18.672Z,4.80
2018-11-27T17:07:47.009Z,4.80
2018-11-27T17:10:17.542Z,4.90
2018-11-27T17:12:46.870Z,4.90
2018-11-27T17:15:19.195Z,4.80
2018-11-27T17:17:47.500Z,4.80
2018-11-27T17:20:18.609Z,4.90
2018-11-27T17:22:46.941Z,4.90
2018-11-27T17:25:15.254Z,4.90
2018-11-27T17:27:43.698Z,5.00
2018-11-27T17:30:35.146Z,5.10
2018-11-27T17:33:04.196Z,5.10
2018-11-27T17:35:32.537Z,5.00
2018-11-27T17:38:00.877Z,5.00
2018-11-27T17:40:29.212Z,5.00
2018-11-27T17:42:57.498Z,5.00
2018-11-27T17:45:25.839Z,5.00
2018-11-27T17:47:54.170Z,4.90
2018-11-27T17:50:22.465Z,4.90
2018-11-27T17:52:50.790Z,4.80
2018-11-27T17:55:19.083Z,4.80
2018-11-27T17:57:47.416Z,4.90
2018-11-27T18:00:20.179Z,4.90
2018-11-27T18:02:50.240Z,4.90
2018-11-27T18:05:18.557Z,4.90
2018-11-27T18:07:46.857Z,4.90
2018-11-27T18:10:15.140Z,4.80
2018-11-27T18:12:43.483Z,4.90
2018-11-27T18:15:16.102Z,5.00
2018-11-27T18:17:44.444Z,4.90
2018-11-27T18:20:12.913Z,4.90
2018-11-27T18:22:41.273Z,4.90
2018-11-27T18:25:11.039Z,4.90
2018-11-27T18:27:39.436Z,5.00
2018-11-27T18:30:13.214Z,4.90
2018-11-27T18:32:41.541Z,4.90
2018-11-27T18:35:12.067Z,4.90
2018-11-27T18:37:40.489Z,4.80
2018-11-27T18:40:11.042Z,4.80
2018-11-27T18:42:39.468Z,4.90
2018-11-27T18:45:15.292Z,5.00
2018-11-27T18:47:43.685Z,5.00
2018-11-27T18:50:12.290Z,4.90
2018-11-27T18:52:40.894Z,4.90
2018-11-27T18:55:10.582Z,4.90
2018-11-27T18:57:39.181Z,4.80
2018-11-27T19:00:15.837Z,4.30
2018-11-27T19:02:44.261Z,4.40
2018-11-27T19:05:12.703Z,4.50
2018-11-27T19:07:41.157Z,4.50
2018-11-27T19:10:13.718Z,4.60
2018-11-27T19:12:42.184Z,4.60
2018-11-27T19:15:15.092Z,4.50
2018-11-27T19:17:44.522Z,4.40
2018-11-27T19:20:13.301Z,4.40
2018-11-27T19:22:41.693Z,4.50
2018-11-27T19:25:13.328Z,4.70
2018-11-27T19:27:41.836Z,4.70
2018-11-27T19:30:18.270Z,4.60
2018-11-27T19:32:46.746Z,4.40
2018-11-27T19:35:18.306Z,4.40
2018-11-27T19:37:47.629Z,4.40
2018-11-27T19:40:17.235Z,4.50
2018-11-27T19:42:45.610Z,4.60
2018-11-27T19:45:17.336Z,4.70
2018-11-27T19:47:45.776Z,4.70
2018-11-27T19:50:14.285Z,4.60
2018-11-27T19:52:44.306Z,4.70
2018-11-27T19:55:13.905Z,4.80
2018-11-27T19:57:42.466Z,4.90
2018-11-27T20:00:20.338Z,4.90
2018-11-27T20:02:48.889Z,4.80
2018-11-27T20:05:18.489Z,4.80
2018-11-27T20:07:46.981Z,4.80
2018-11-27T20:10:15.865Z,4.80
2018-11-27T20:12:44.351Z,4.80
2018-11-27T20:15:19.738Z,4.70
2018-11-27T20:17:48.965Z,4.50
2018-11-27T20:20:18.477Z,4.60
2018-11-27T20:22:46.873Z,4.70
2018-11-27T20:25:16.581Z,4.70
2018-11-27T20:27:45.003Z,4.70
2018-11-27T20:30:14.232Z,4.60
2018-11-27T20:32:44.138Z,4.50
2018-11-27T20:35:14.188Z,4.60
2018-11-27T20:37:42.914Z,4.60
2018-11-27T20:40:13.357Z,4.60
2018-11-27T20:42:42.116Z,4.60
2018-11-27T20:45:12.303Z,4.60
2018-11-27T20:47:40.814Z,4.50
2018-11-27T20:50:12.462Z,4.50
2018-11-27T20:52:40.906Z,4.30
2018-11-27T20:55:10.277Z,4.10
2018-11-27T20:57:38.775Z,4.10
2018-11-27T21:00:14.113Z,3.70
2018-11-27T21:02:42.615Z,3.90
2018-11-27T21:05:11.113Z,4.00
2018-11-27T21:07:39.486Z,4.20
2018-11-27T21:10:09.975Z,4.20
2018-11-27T21:12:38.333Z,4.30
2018-11-27T21:15:10.849Z,4.40
2018-11-27T21:17:39.437Z,4.50
2018-11-27T21:20:10.061Z,4.20
2018-11-27T21:22:38.458Z,4.10
2018-11-27T21:25:13.530Z,3.90
2018-11-27T21:27:42.509Z,4.00
2018-11-27T21:30:14.997Z,4.10
2018-11-27T21:32:43.678Z,4.10
2018-11-27T21:35:14.005Z,4.10
2018-11-27T21:37:42.521Z,4.10
2018-11-27T21:40:13.186Z,4.30
2018-11-27T21:42:41.597Z,4.40
2018-11-27T21:45:17.079Z,4.30
2018-11-27T21:47:45.781Z,4.40
2018-11-27T21:50:15.551Z,4.50
2018-11-27T21:52:43.914Z,4.50
2018-11-27T21:55:13.138Z,4.40
2018-11-27T21:57:41.583Z,4.40
2018-11-27T22:00:20.394Z,4.40
2018-11-27T22:02:48.798Z,4.30
2018-11-27T22:05:17.234Z,4.40
2018-11-27T22:07:45.747Z,4.40
2018-11-27T22:10:15.201Z,4.40
2018-11-27T22:12:45.538Z,4.40
2018-11-27T22:15:17.486Z,4.60
2018-11-27T22:17:45.897Z,4.50
2018-11-27T22:20:14.367Z,4.50
2018-11-27T22:22:47.321Z,4.50
2018-11-27T22:25:15.751Z,4.40
2018-11-27T22:27:44.167Z,4.30
2018-11-27T22:30:17.443Z,4.30
2018-11-27T22:32:47.046Z,4.40
2018-11-27T22:35:15.485Z,4.40
2018-11-27T22:37:43.843Z,4.40
2018-11-27T22:40:14.311Z,4.60
2018-11-27T22:42:42.834Z,4.60
2018-11-27T22:45:14.283Z,4.50
2018-11-27T22:47:42.699Z,4.40
2018-11-27T22:50:13.220Z,4.40
2018-11-27T22:52:41.622Z,4.50
2018-11-27T22:55:10.337Z,4.30
2018-11-27T22:57:38.816Z,4.30
2018-11-27T23:00:30.998Z,4.30
2018-11-27T23:02:59.401Z,4.20
2018-11-27T23:05:27.824Z,3.90
2018-11-27T23:07:56.258Z,3.80
2018-11-27T23:10:25.465Z,3.70
2018-11-27T23:12:53.830Z,3.60
2018-11-27T23:15:22.324Z,3.50
2018-11-27T23:17:50.796Z,3.60
2018-11-27T23:20:19.689Z,3.80
2018-11-27T23:22:48.074Z,4.10
2018-11-27T23:25:17.478Z,4.40
2018-11-27T23:27:45.901Z,4.30
2018-11-27T23:30:18.621Z,4.10
2018-11-27T23:32:47.046Z,3.90
2018-11-27T23:35:15.427Z,3.80
2018-11-27T23:37:43.802Z,3.80
2018-11-27T23:40:13.386Z,4.00
2018-11-27T23:42:42.053Z,4.10
2018-11-27T23:45:15.420Z,4.10
2018-11-27T23:47:43.832Z,4.00
2018-11-27T23:50:13.357Z,4.00
2018-11-27T23:52:41.870Z,4.10
2018-11-27T23:55:11.331Z,4.20
2018-11-27T23:57:40.016Z,4.20
